sensor_id;sensor_type;location;lat;lon;timestamp;P1;durP1;ratioP1;P2;durP2;ratioP2
64174;SDS011;50469;50.438;-119.202;2022-09-09T00:04:29;3.70;;;0.50;;
64174;SDS011;50469;50.438;-119.202;2022-09-09T00:15:20;9.30;;;0.30;;
64174;SDS011;50469;50.438;-119.202;2022-09-09T00:18:13;2.33;;;0.50;;
64174;SDS011;50469;50.438;-119.202;2022-09-09T00:20:49;0.50;;;0.38;;
64174;SDS011;50469;50.438;-119.202;2022-09-09T00:23:24;0.52;;;0.30;;
64174;SDS011;50469;50.438;-119.202;2022-09-09T00:28:42;1.27;;;0.55;;
64174;SDS011;50469;50.438;-119.202;2022-09-09T00:31:21;2.63;;;0.40;;
64174;SDS011;50469;50.438;-119.202;2022-09-09T00:33:52;4.10;;;0.60;;
64174;SDS011;50469;50.438;-119.202;2022-09-09T00:36:23;3.63;;;0.40;;
64174;SDS011;50469;50.438;-119.202;2022-09-09T00:38:57;0.85;;;0.40;;
64174;SDS011;50469;50.438;-119.202;2022-09-09T00:47:04;2.65;;;0.40;;
64174;SDS011;50469;50.438;-119.202;2022-09-09T00:57:48;0.30;;;0.30;;
64174;SDS011;50469;50.438;-119.202;2022-09-09T01:00:21;0.20;;;0.20;;
64174;SDS011;50469;50.438;-119.202;2022-09-09T01:05:57;4.20;;;0.40;;
64174;SDS011;50469;50.438;-119.202;2022-09-09T01:11:22;3.50;;;0.38;;
64174;SDS011;50469;50.438;-119.202;2022-09-09T01:13:55;0.85;;;0.45;;
64174;SDS011;50469;50.438;-119.202;2022-09-09T01:16:37;0.73;;;0.50;;
64174;SDS011;50469;50.438;-119.202;2022-09-09T01:19:06;7.68;;;1.10;;
64174;SDS011;50469;50.438;-119.202;2022-09-09T01:21:49;1.38;;;0.43;;
64174;SDS011;50469;50.438;-119.202;2022-09-09T01:24:38;0.60;;;0.50;;
64174;SDS011;50469;50.438;-119.202;2022-09-09T01:27:28;6.82;;;1.08;;
64174;SDS011;50469;50.438;-119.202;2022-09-09T01:29:57;1.75;;;1.10;;
64174;SDS011;50469;50.438;-119.202;2022-09-09T01:32:42;0.40;;;0.40;;
64174;SDS011;50469;50.438;-119.202;2022-09-09T01:35:22;0.45;;;0.45;;
64174;SDS011;50469;50.438;-119.202;2022-09-09T01:37:55;0.30;;;0.30;;
64174;SDS011;50469;50.438;-119.202;2022-09-09T01:40:26;1.95;;;0.40;;
64174;SDS011;50469;50.438;-119.202;2022-09-09T01:42:56;1.70;;;0.40;;
64174;SDS011;50469;50.438;-119.202;2022-09-09T01:45:24;0.30;;;0.30;;
64174;SDS011;50469;50.438;-119.202;2022-09-09T01:47:53;5.40;;;0.40;;
64174;SDS011;50469;50.438;-119.202;2022-09-09T01:50:21;3.50;;;0.35;;
64174;SDS011;50469;50.438;-119.202;2022-09-09T01:52:52;1.45;;;0.40;;
64174;SDS011;50469;50.438;-119.202;2022-09-09T01:55:32;1.50;;;0.75;;
64174;SDS011;50469;50.438;-119.202;2022-09-09T02:00:37;2.22;;;0.63;;
64174;SDS011;50469;50.438;-119.202;2022-09-09T02:03:24;1.75;;;0.50;;
64174;SDS011;50469;50.438;-119.202;2022-09-09T02:06:05;8.52;;;0.30;;
64174;SDS011;50469;50.438;-119.202;2022-09-09T02:08:50;1.50;;;0.47;;
64174;SDS011;50469;50.438;-119.202;2022-09-09T02:11:23;0.20;;;0.20;;
64174;SDS011;50469;50.438;-119.202;2022-09-09T02:14:18;4.03;;;0.50;;
64174;SDS011;50469;50.438;-119.202;2022-09-09T02:16:48;4.85;;;0.68;;
64174;SDS011;50469;50.438;-119.202;2022-09-09T02:19:22;1.88;;;0.40;;
64174;SDS011;50469;50.438;-119.202;2022-09-09T02:21:57;1.20;;;0.60;;
64174;SDS011;50469;50.438;-119.202;2022-09-09T02:24:28;8.93;;;0.60;;
64174;SDS011;50469;50.438;-119.202;2022-09-09T02:27:01;0.50;;;0.50;;
64174;SDS011;50469;50.438;-119.202;2022-09-09T02:29:36;4.47;;;0.22;;
64174;SDS011;50469;50.438;-119.202;2022-09-09T02:32:11;2.03;;;0.45;;
64174;SDS011;50469;50.438;-119.202;2022-09-09T02:34:49;2.20;;;0.50;;
64174;SDS011;50469;50.438;-119.202;2022-09-09T02:37:25;1.17;;;0.20;;
64174;SDS011;50469;50.438;-119.202;2022-09-09T02:39:59;1.77;;;0.80;;
64174;SDS011;50469;50.438;-119.202;2022-09-09T02:42:27;3.85;;;1.50;;
64174;SDS011;50469;50.438;-119.202;2022-09-09T02:44:57;7.40;;;2.67;;
64174;SDS011;50469;50.438;-119.202;2022-09-09T02:47:29;6.95;;;3.33;;
64174;SDS011;50469;50.438;-119.202;2022-09-09T02:50:26;2.20;;;1.50;;
64174;SDS011;50469;50.438;-119.202;2022-09-09T02:53:16;33.70;;;7.45;;
64174;SDS011;50469;50.438;-119.202;2022-09-09T02:56:09;27.17;;;6.93;;
64174;SDS011;50469;50.438;-119.202;2022-09-09T02:58:46;4.78;;;1.73;;
64174;SDS011;50469;50.438;-119.202;2022-09-09T03:01:16;4.80;;;1.38;;
64174;SDS011;50469;50.438;-119.202;2022-09-09T03:03:44;2.15;;;1.10;;
64174;SDS011;50469;50.438;-119.202;2022-09-09T03:06:15;4.45;;;0.80;;
64174;SDS011;50469;50.438;-119.202;2022-09-09T03:08:43;20.60;;;0.90;;
64174;SDS011;50469;50.438;-119.202;2022-09-09T03:11:16;9.25;;;1.20;;
64174;SDS011;50469;50.438;-119.202;2022-09-09T03:13:44;3.90;;;0.80;;
64174;SDS011;50469;50.438;-119.202;2022-09-09T03:16:15;5.82;;;0.70;;
64174;SDS011;50469;50.438;-119.202;2022-09-09T03:18:43;3.40;;;0.60;;
64174;SDS011;50469;50.438;-119.202;2022-09-09T03:21:14;1.95;;;0.77;;
64174;SDS011;50469;50.438;-119.202;2022-09-09T03:23:44;4.82;;;0.68;;
64174;SDS011;50469;50.438;-119.202;2022-09-09T03:26:15;2.10;;;0.73;;
64174;SDS011;50469;50.438;-119.202;2022-09-09T03:28:46;7.15;;;1.23;;
64174;SDS011;50469;50.438;-119.202;2022-09-09T03:31:17;4.85;;;0.80;;
64174;SDS011;50469;50.438;-119.202;2022-09-09T03:33:48;10.50;;;1.02;;
64174;SDS011;50469;50.438;-119.202;2022-09-09T03:36:19;8.70;;;1.02;;
64174;SDS011;50469;50.438;-119.202;2022-09-09T03:38:47;6.70;;;0.63;;
64174;SDS011;50469;50.438;-119.202;2022-09-09T03:41:15;5.68;;;0.57;;
64174;SDS011;50469;50.438;-119.202;2022-09-09T03:43:46;2.90;;;0.60;;
64174;SDS011;50469;50.438;-119.202;2022-09-09T03:46:14;0.88;;;0.45;;
64174;SDS011;50469;50.438;-119.202;2022-09-09T03:48:42;2.92;;;0.70;;
64174;SDS011;50469;50.438;-119.202;2022-09-09T03:51:10;0.63;;;0.45;;
64174;SDS011;50469;50.438;-119.202;2022-09-09T03:53:38;2.80;;;0.40;;
64174;SDS011;50469;50.438;-119.202;2022-09-09T03:56:09;4.30;;;0.38;;
64174;SDS011;50469;50.438;-119.202;2022-09-09T03:58:37;9.80;;;0.60;;
64174;SDS011;50469;50.438;-119.202;2022-09-09T04:01:07;7.03;;;0.68;;
64174;SDS011;50469;50.438;-119.202;2022-09-09T04:03:36;3.03;;;0.65;;
64174;SDS011;50469;50.438;-119.202;2022-09-09T04:06:05;1.35;;;0.70;;
64174;SDS011;50469;50.438;-119.202;2022-09-09T04:08:36;3.92;;;0.50;;
64174;SDS011;50469;50.438;-119.202;2022-09-09T04:11:04;10.63;;;0.80;;
64174;SDS011;50469;50.438;-119.202;2022-09-09T04:13:33;0.70;;;0.43;;
64174;SDS011;50469;50.438;-119.202;2022-09-09T04:16:02;5.93;;;1.00;;
64174;SDS011;50469;50.438;-119.202;2022-09-09T04:18:32;7.38;;;1.00;;
64174;SDS011;50469;50.438;-119.202;2022-09-09T04:21:03;11.18;;;1.10;;
64174;SDS011;50469;50.438;-119.202;2022-09-09T04:23:32;7.07;;;1.10;;
64174;SDS011;50469;50.438;-119.202;2022-09-09T04:26:01;16.13;;;1.80;;
64174;SDS011;50469;50.438;-119.202;2022-09-09T04:28:33;6.05;;;1.02;;
64174;SDS011;50469;50.438;-119.202;2022-09-09T04:31:09;3.22;;;0.90;;
64174;SDS011;50469;50.438;-119.202;2022-09-09T04:33:43;7.60;;;0.95;;
64174;SDS011;50469;50.438;-119.202;2022-09-09T04:36:11;7.05;;;1.10;;
64174;SDS011;50469;50.438;-119.202;2022-09-09T04:38:42;11.13;;;1.08;;
64174;SDS011;50469;50.438;-119.202;2022-09-09T04:41:10;3.05;;;1.00;;
64174;SDS011;50469;50.438;-119.202;2022-09-09T04:43:39;11.63;;;1.20;;
64174;SDS011;50469;50.438;-119.202;2022-09-09T04:46:07;8.20;;;1.38;;
64174;SDS011;50469;50.438;-119.202;2022-09-09T04:48:36;8.52;;;1.40;;
64174;SDS011;50469;50.438;-119.202;2022-09-09T04:51:04;11.10;;;1.23;;
64174;SDS011;50469;50.438;-119.202;2022-09-09T04:53:36;12.77;;;1.20;;
64174;SDS011;50469;50.438;-119.202;2022-09-09T04:56:08;8.52;;;1.38;;
64174;SDS011;50469;50.438;-119.202;2022-09-09T04:58:36;9.30;;;2.00;;
64174;SDS011;50469;50.438;-119.202;2022-09-09T05:01:09;6.60;;;1.48;;
64174;SDS011;50469;50.438;-119.202;2022-09-09T05:03:39;11.07;;;2.78;;
64174;SDS011;50469;50.438;-119.202;2022-09-09T05:06:09;14.82;;;1.55;;
64174;SDS011;50469;50.438;-119.202;2022-09-09T05:08:38;19.08;;;1.98;;
64174;SDS011;50469;50.438;-119.202;2022-09-09T05:16:11;10.80;;;0.90;;
64174;SDS011;50469;50.438;-119.202;2022-09-09T05:18:40;22.67;;;1.63;;
64174;SDS011;50469;50.438;-119.202;2022-09-09T05:21:08;12.20;;;1.55;;
64174;SDS011;50469;50.438;-119.202;2022-09-09T05:23:40;8.98;;;1.90;;
64174;SDS011;50469;50.438;-119.202;2022-09-09T05:26:11;21.52;;;2.20;;
64174;SDS011;50469;50.438;-119.202;2022-09-09T05:28:44;12.88;;;1.45;;
64174;SDS011;50469;50.438;-119.202;2022-09-09T05:31:16;2.85;;;1.27;;
64174;SDS011;50469;50.438;-119.202;2022-09-09T05:33:45;3.38;;;1.33;;
64174;SDS011;50469;50.438;-119.202;2022-09-09T05:36:18;7.00;;;1.27;;
64174;SDS011;50469;50.438;-119.202;2022-09-09T05:38:50;3.13;;;1.00;;
64174;SDS011;50469;50.438;-119.202;2022-09-09T05:41:19;9.27;;;1.58;;
64174;SDS011;50469;50.438;-119.202;2022-09-09T05:43:50;7.93;;;0.88;;
64174;SDS011;50469;50.438;-119.202;2022-09-09T05:46:19;6.30;;;1.15;;
64174;SDS011;50469;50.438;-119.202;2022-09-09T05:48:49;9.40;;;0.88;;
64174;SDS011;50469;50.438;-119.202;2022-09-09T05:51:24;8.07;;;1.20;;
64174;SDS011;50469;50.438;-119.202;2022-09-09T05:53:53;5.88;;;0.70;;
64174;SDS011;50469;50.438;-119.202;2022-09-09T05:56:27;10.30;;;1.27;;
64174;SDS011;50469;50.438;-119.202;2022-09-09T05:58:58;5.60;;;1.33;;
64174;SDS011;50469;50.438;-119.202;2022-09-09T06:01:31;9.60;;;1.27;;
64174;SDS011;50469;50.438;-119.202;2022-09-09T06:04:00;10.75;;;1.23;;
64174;SDS011;50469;50.438;-119.202;2022-09-09T06:06:32;11.35;;;1.10;;
64174;SDS011;50469;50.438;-119.202;2022-09-09T06:09:02;5.50;;;1.00;;
64174;SDS011;50469;50.438;-119.202;2022-09-09T06:11:31;8.75;;;0.70;;
64174;SDS011;50469;50.438;-119.202;2022-09-09T06:14:00;7.18;;;2.05;;
64174;SDS011;50469;50.438;-119.202;2022-09-09T06:16:31;8.90;;;1.38;;
64174;SDS011;50469;50.438;-119.202;2022-09-09T06:19:00;8.45;;;1.33;;
64174;SDS011;50469;50.438;-119.202;2022-09-09T06:21:32;6.65;;;1.23;;
64174;SDS011;50469;50.438;-119.202;2022-09-09T06:24:02;12.13;;;1.10;;
64174;SDS011;50469;50.438;-119.202;2022-09-09T06:26:32;14.63;;;1.17;;
64174;SDS011;50469;50.438;-119.202;2022-09-09T06:31:33;1.40;;;0.90;;
64174;SDS011;50469;50.438;-119.202;2022-09-09T06:34:04;6.75;;;1.08;;
64174;SDS011;50469;50.438;-119.202;2022-09-09T06:36:34;14.25;;;1.73;;
64174;SDS011;50469;50.438;-119.202;2022-09-09T06:39:04;8.57;;;1.13;;
64174;SDS011;50469;50.438;-119.202;2022-09-09T06:41:40;7.07;;;1.15;;
64174;SDS011;50469;50.438;-119.202;2022-09-09T06:44:08;8.80;;;1.67;;
64174;SDS011;50469;50.438;-119.202;2022-09-09T06:46:39;7.13;;;0.88;;
64174;SDS011;50469;50.438;-119.202;2022-09-09T06:49:10;6.75;;;1.38;;
64174;SDS011;50469;50.438;-119.202;2022-09-09T06:51:38;5.90;;;0.90;;
64174;SDS011;50469;50.438;-119.202;2022-09-09T06:54:06;13.10;;;1.38;;
64174;SDS011;50469;50.438;-119.202;2022-09-09T06:56:35;10.95;;;1.77;;
64174;SDS011;50469;50.438;-119.202;2022-09-09T06:59:07;3.83;;;1.20;;
64174;SDS011;50469;50.438;-119.202;2022-09-09T07:01:39;11.82;;;2.03;;
64174;SDS011;50469;50.438;-119.202;2022-09-09T07:04:11;2.65;;;0.88;;
64174;SDS011;50469;50.438;-119.202;2022-09-09T07:06:43;6.68;;;1.35;;
64174;SDS011;50469;50.438;-119.202;2022-09-09T07:09:13;4.57;;;0.60;;
64174;SDS011;50469;50.438;-119.202;2022-09-09T07:11:45;3.80;;;1.05;;
64174;SDS011;50469;50.438;-119.202;2022-09-09T07:14:18;9.30;;;0.95;;
64174;SDS011;50469;50.438;-119.202;2022-09-09T07:16:47;13.82;;;1.33;;
64174;SDS011;50469;50.438;-119.202;2022-09-09T07:19:15;11.00;;;0.98;;
64174;SDS011;50469;50.438;-119.202;2022-09-09T07:21:45;10.98;;;1.40;;
64174;SDS011;50469;50.438;-119.202;2022-09-09T07:24:13;7.90;;;1.33;;
64174;SDS011;50469;50.438;-119.202;2022-09-09T07:26:42;8.63;;;1.40;;
64174;SDS011;50469;50.438;-119.202;2022-09-09T07:29:13;22.90;;;1.42;;
64174;SDS011;50469;50.438;-119.202;2022-09-09T07:31:46;6.70;;;0.82;;
64174;SDS011;50469;50.438;-119.202;2022-09-09T07:34:14;14.85;;;1.25;;
64174;SDS011;50469;50.438;-119.202;2022-09-09T07:36:42;10.38;;;1.10;;
64174;SDS011;50469;50.438;-119.202;2022-09-09T07:39:13;6.38;;;1.10;;
64174;SDS011;50469;50.438;-119.202;2022-09-09T07:41:43;6.30;;;1.00;;
64174;SDS011;50469;50.438;-119.202;2022-09-09T07:44:13;6.57;;;0.98;;
64174;SDS011;50469;50.438;-119.202;2022-09-09T07:46:43;3.40;;;0.75;;
64174;SDS011;50469;50.438;-119.202;2022-09-09T07:49:12;5.55;;;0.77;;
64174;SDS011;50469;50.438;-119.202;2022-09-09T07:51:42;3.45;;;1.17;;
64174;SDS011;50469;50.438;-119.202;2022-09-09T07:54:12;8.25;;;1.42;;
64174;SDS011;50469;50.438;-119.202;2022-09-09T07:56:41;9.40;;;1.35;;
64174;SDS011;50469;50.438;-119.202;2022-09-09T07:59:12;5.07;;;1.17;;
64174;SDS011;50469;50.438;-119.202;2022-09-09T08:01:42;10.45;;;1.10;;
64174;SDS011;50469;50.438;-119.202;2022-09-09T08:04:14;11.15;;;0.98;;
64174;SDS011;50469;50.438;-119.202;2022-09-09T08:06:48;6.28;;;0.90;;
64174;SDS011;50469;50.438;-119.202;2022-09-09T08:09:21;5.18;;;1.00;;
64174;SDS011;50469;50.438;-119.202;2022-09-09T08:11:50;7.93;;;0.90;;
64174;SDS011;50469;50.438;-119.202;2022-09-09T08:14:20;2.03;;;0.75;;
64174;SDS011;50469;50.438;-119.202;2022-09-09T08:16:48;4.45;;;1.00;;
64174;SDS011;50469;50.438;-119.202;2022-09-09T08:19:20;18.38;;;1.30;;
64174;SDS011;50469;50.438;-119.202;2022-09-09T08:21:51;11.00;;;0.80;;
64174;SDS011;50469;50.438;-119.202;2022-09-09T08:24:19;6.53;;;0.82;;
64174;SDS011;50469;50.438;-119.202;2022-09-09T08:26:47;4.55;;;0.68;;
64174;SDS011;50469;50.438;-119.202;2022-09-09T08:29:16;8.93;;;1.33;;
64174;SDS011;50469;50.438;-119.202;2022-09-09T08:31:49;4.72;;;0.73;;
64174;SDS011;50469;50.438;-119.202;2022-09-09T08:34:18;1.40;;;0.50;;
64174;SDS011;50469;50.438;-119.202;2022-09-09T08:36:50;9.15;;;0.70;;
64174;SDS011;50469;50.438;-119.202;2022-09-09T08:39:19;10.13;;;1.20;;
64174;SDS011;50469;50.438;-119.202;2022-09-09T08:55:28;6.30;;;0.95;;
64174;SDS011;50469;50.438;-119.202;2022-09-09T08:58:17;8.18;;;1.13;;
64174;SDS011;50469;50.438;-119.202;2022-09-09T09:06:50;6.15;;;0.70;;
64174;SDS011;50469;50.438;-119.202;2022-09-09T09:09:28;11.38;;;0.68;;
64174;SDS011;50469;50.438;-119.202;2022-09-09T09:12:16;10.30;;;0.98;;
64174;SDS011;50469;50.438;-119.202;2022-09-09T09:14:53;4.90;;;0.90;;
64174;SDS011;50469;50.438;-119.202;2022-09-09T09:17:25;8.70;;;0.80;;
64174;SDS011;50469;50.438;-119.202;2022-09-09T09:19:55;12.23;;;1.00;;
64174;SDS011;50469;50.438;-119.202;2022-09-09T09:22:26;0.98;;;0.60;;
64174;SDS011;50469;50.438;-119.202;2022-09-09T09:30:49;10.02;;;1.10;;
64174;SDS011;50469;50.438;-119.202;2022-09-09T09:33:32;7.43;;;1.10;;
64174;SDS011;50469;50.438;-119.202;2022-09-09T09:36:14;2.58;;;1.10;;
64174;SDS011;50469;50.438;-119.202;2022-09-09T09:38:56;2.80;;;1.17;;
64174;SDS011;50469;50.438;-119.202;2022-09-09T09:41:53;18.88;;;2.05;;
64174;SDS011;50469;50.438;-119.202;2022-09-09T09:44:26;18.23;;;1.10;;
64174;SDS011;50469;50.438;-119.202;2022-09-09T09:47:17;1.23;;;0.60;;
64174;SDS011;50469;50.438;-119.202;2022-09-09T09:52:25;17.10;;;1.98;;
64174;SDS011;50469;50.438;-119.202;2022-09-09T09:54:55;4.28;;;0.85;;
64174;SDS011;50469;50.438;-119.202;2022-09-09T09:57:32;6.65;;;1.10;;
64174;SDS011;50469;50.438;-119.202;2022-09-09T10:00:22;6.53;;;1.13;;
64174;SDS011;50469;50.438;-119.202;2022-09-09T10:02:50;7.93;;;1.00;;
64174;SDS011;50469;50.438;-119.202;2022-09-09T10:19:09;5.43;;;1.08;;
64174;SDS011;50469;50.438;-119.202;2022-09-09T10:22:25;3.75;;;1.13;;
64174;SDS011;50469;50.438;-119.202;2022-09-09T10:27:18;4.32;;;0.90;;
64174;SDS011;50469;50.438;-119.202;2022-09-09T10:29:56;8.75;;;1.10;;
64174;SDS011;50469;50.438;-119.202;2022-09-09T10:46:08;12.68;;;1.20;;
64174;SDS011;50469;50.438;-119.202;2022-09-09T10:57:24;12.38;;;1.13;;
64174;SDS011;50469;50.438;-119.202;2022-09-09T10:59:57;1.10;;;0.93;;
64174;SDS011;50469;50.438;-119.202;2022-09-09T11:02:31;4.18;;;1.10;;
64174;SDS011;50469;50.438;-119.202;2022-09-09T11:05:03;5.88;;;1.20;;
64174;SDS011;50469;50.438;-119.202;2022-09-09T11:07:41;6.85;;;0.98;;
64174;SDS011;50469;50.438;-119.202;2022-09-09T11:19:09;2.75;;;0.98;;
64174;SDS011;50469;50.438;-119.202;2022-09-09T11:21:43;2.20;;;1.00;;
64174;SDS011;50469;50.438;-119.202;2022-09-09T11:27:16;6.15;;;1.10;;
64174;SDS011;50469;50.438;-119.202;2022-09-09T11:32:35;6.95;;;0.90;;
64174;SDS011;50469;50.438;-119.202;2022-09-09T11:35:39;18.33;;;1.77;;
64174;SDS011;50469;50.438;-119.202;2022-09-09T11:40:55;2.65;;;1.20;;
64174;SDS011;50469;50.438;-119.202;2022-09-09T11:43:24;2.70;;;1.25;;
64174;SDS011;50469;50.438;-119.202;2022-09-09T11:45:58;14.95;;;1.25;;
64174;SDS011;50469;50.438;-119.202;2022-09-09T11:48:37;12.70;;;0.95;;
64174;SDS011;50469;50.438;-119.202;2022-09-09T11:51:10;16.38;;;1.33;;
64174;SDS011;50469;50.438;-119.202;2022-09-09T11:56:48;17.70;;;1.35;;
64174;SDS011;50469;50.438;-119.202;2022-09-09T11:59:24;13.38;;;1.33;;
64174;SDS011;50469;50.438;-119.202;2022-09-09T12:04:47;32.40;;;1.70;;
64174;SDS011;50469;50.438;-119.202;2022-09-09T12:10:04;15.55;;;1.40;;
64174;SDS011;50469;50.438;-119.202;2022-09-09T12:12:47;18.58;;;1.40;;
64174;SDS011;50469;50.438;-119.202;2022-09-09T12:15:17;26.15;;;3.00;;
64174;SDS011;50469;50.438;-119.202;2022-09-09T12:17:49;16.50;;;1.92;;
64174;SDS011;50469;50.438;-119.202;2022-09-09T12:20:32;14.95;;;1.70;;
64174;SDS011;50469;50.438;-119.202;2022-09-09T12:23:17;12.32;;;1.60;;
64174;SDS011;50469;50.438;-119.202;2022-09-09T12:42:45;10.75;;;1.40;;
64174;SDS011;50469;50.438;-119.202;2022-09-09T12:45:18;12.48;;;2.28;;
64174;SDS011;50469;50.438;-119.202;2022-09-09T12:48:24;12.02;;;1.63;;
64174;SDS011;50469;50.438;-119.202;2022-09-09T12:50:49;14.45;;;2.25;;
64174;SDS011;50469;50.438;-119.202;2022-09-09T12:56:23;12.05;;;1.42;;
64174;SDS011;50469;50.438;-119.202;2022-09-09T12:58:54;16.88;;;1.85;;
64174;SDS011;50469;50.438;-119.202;2022-09-09T13:01:25;37.15;;;1.88;;
64174;SDS011;50469;50.438;-119.202;2022-09-09T13:04:00;27.05;;;1.88;;
64174;SDS011;50469;50.438;-119.202;2022-09-09T13:06:30;19.27;;;3.08;;
64174;SDS011;50469;50.438;-119.202;2022-09-09T13:09:00;10.85;;;2.20;;
64174;SDS011;50469;50.438;-119.202;2022-09-09T13:11:40;14.18;;;1.90;;
64174;SDS011;50469;50.438;-119.202;2022-09-09T13:17:48;8.52;;;1.60;;
64174;SDS011;50469;50.438;-119.202;2022-09-09T13:20:14;8.77;;;1.65;;
64174;SDS011;50469;50.438;-119.202;2022-09-09T13:22:45;6.43;;;1.45;;
64174;SDS011;50469;50.438;-119.202;2022-09-09T13:28:03;21.90;;;2.00;;
64174;SDS011;50469;50.438;-119.202;2022-09-09T13:30:33;17.58;;;1.92;;
64174;SDS011;50469;50.438;-119.202;2022-09-09T13:35:47;15.75;;;1.70;;
64174;SDS011;50469;50.438;-119.202;2022-09-09T13:38:22;12.52;;;1.85;;
64174;SDS011;50469;50.438;-119.202;2022-09-09T13:41:06;17.75;;;1.75;;
64174;SDS011;50469;50.438;-119.202;2022-09-09T13:43:41;8.57;;;1.17;;
64174;SDS011;50469;50.438;-119.202;2022-09-09T13:49:00;14.95;;;2.05;;
64174;SDS011;50469;50.438;-119.202;2022-09-09T13:51:33;15.15;;;2.17;;
64174;SDS011;50469;50.438;-119.202;2022-09-09T13:54:01;5.72;;;1.60;;
64174;SDS011;50469;50.438;-119.202;2022-09-09T13:56:30;7.10;;;1.95;;
64174;SDS011;50469;50.438;-119.202;2022-09-09T13:58:58;15.55;;;2.08;;
64174;SDS011;50469;50.438;-119.202;2022-09-09T14:01:29;12.13;;;2.20;;
64174;SDS011;50469;50.438;-119.202;2022-09-09T14:03:57;14.27;;;1.90;;
64174;SDS011;50469;50.438;-119.202;2022-09-09T14:06:25;8.82;;;1.92;;
64174;SDS011;50469;50.438;-119.202;2022-09-09T14:08:54;13.73;;;1.90;;
64174;SDS011;50469;50.438;-119.202;2022-09-09T14:11:22;13.98;;;2.10;;
64174;SDS011;50469;50.438;-119.202;2022-09-09T14:13:52;16.90;;;2.55;;
64174;SDS011;50469;50.438;-119.202;2022-09-09T14:16:21;10.52;;;2.25;;
64174;SDS011;50469;50.438;-119.202;2022-09-09T14:18:49;6.38;;;2.38;;
64174;SDS011;50469;50.438;-119.202;2022-09-09T14:21:17;14.70;;;1.95;;
64174;SDS011;50469;50.438;-119.202;2022-09-09T14:23:45;20.60;;;1.90;;
64174;SDS011;50469;50.438;-119.202;2022-09-09T14:26:13;17.08;;;1.70;;
64174;SDS011;50469;50.438;-119.202;2022-09-09T14:28:42;17.08;;;2.42;;
64174;SDS011;50469;50.438;-119.202;2022-09-09T14:31:21;9.65;;;2.88;;
64174;SDS011;50469;50.438;-119.202;2022-09-09T14:33:50;23.90;;;3.03;;
64174;SDS011;50469;50.438;-119.202;2022-09-09T14:36:21;12.38;;;2.67;;
64174;SDS011;50469;50.438;-119.202;2022-09-09T14:38:49;10.90;;;3.00;;
64174;SDS011;50469;50.438;-119.202;2022-09-09T14:41:20;17.48;;;3.13;;
64174;SDS011;50469;50.438;-119.202;2022-09-09T14:43:50;13.40;;;3.40;;
64174;SDS011;50469;50.438;-119.202;2022-09-09T14:46:21;17.00;;;2.97;;
64174;SDS011;50469;50.438;-119.202;2022-09-09T14:48:52;33.10;;;4.72;;
64174;SDS011;50469;50.438;-119.202;2022-09-09T14:51:27;22.77;;;3.38;;
64174;SDS011;50469;50.438;-119.202;2022-09-09T14:53:56;10.18;;;3.38;;
64174;SDS011;50469;50.438;-119.202;2022-09-09T14:56:26;15.75;;;3.10;;
64174;SDS011;50469;50.438;-119.202;2022-09-09T14:58:57;23.30;;;3.45;;
64174;SDS011;50469;50.438;-119.202;2022-09-09T15:01:26;7.95;;;3.13;;
64174;SDS011;50469;50.438;-119.202;2022-09-09T15:03:56;6.07;;;3.00;;
64174;SDS011;50469;50.438;-119.202;2022-09-09T15:06:32;16.02;;;4.20;;
64174;SDS011;50469;50.438;-119.202;2022-09-09T15:09:02;26.67;;;4.38;;
64174;SDS011;50469;50.438;-119.202;2022-09-09T15:11:33;16.02;;;3.53;;
64174;SDS011;50469;50.438;-119.202;2022-09-09T15:14:03;23.08;;;4.05;;
64174;SDS011;50469;50.438;-119.202;2022-09-09T15:16:34;35.88;;;3.75;;
64174;SDS011;50469;50.438;-119.202;2022-09-09T15:19:04;25.77;;;3.50;;
64174;SDS011;50469;50.438;-119.202;2022-09-09T15:21:35;15.57;;;3.63;;
64174;SDS011;50469;50.438;-119.202;2022-09-09T15:24:04;13.88;;;3.28;;
64174;SDS011;50469;50.438;-119.202;2022-09-09T15:26:33;12.35;;;3.88;;
64174;SDS011;50469;50.438;-119.202;2022-09-09T15:29:01;21.55;;;4.10;;
64174;SDS011;50469;50.438;-119.202;2022-09-09T15:31:30;27.98;;;3.80;;
64174;SDS011;50469;50.438;-119.202;2022-09-09T15:39:03;12.38;;;3.45;;
64174;SDS011;50469;50.438;-119.202;2022-09-09T15:41:33;12.40;;;3.13;;
64174;SDS011;50469;50.438;-119.202;2022-09-09T15:44:02;7.20;;;3.25;;
64174;SDS011;50469;50.438;-119.202;2022-09-09T15:46:43;17.00;;;3.85;;
64174;SDS011;50469;50.438;-119.202;2022-09-09T15:49:17;17.02;;;3.17;;
64174;SDS011;50469;50.438;-119.202;2022-09-09T15:51:55;22.95;;;3.78;;
64174;SDS011;50469;50.438;-119.202;2022-09-09T15:54:27;19.67;;;3.88;;
64174;SDS011;50469;50.438;-119.202;2022-09-09T15:56:58;12.00;;;3.40;;
64174;SDS011;50469;50.438;-119.202;2022-09-09T16:02:00;15.13;;;4.28;;
64174;SDS011;50469;50.438;-119.202;2022-09-09T16:04:28;24.20;;;3.53;;
64174;SDS011;50469;50.438;-119.202;2022-09-09T16:06:58;14.77;;;3.35;;
64174;SDS011;50469;50.438;-119.202;2022-09-09T16:09:30;14.73;;;3.00;;
64174;SDS011;50469;50.438;-119.202;2022-09-09T16:11:59;19.70;;;3.65;;
64174;SDS011;50469;50.438;-119.202;2022-09-09T16:14:31;9.57;;;3.10;;
64174;SDS011;50469;50.438;-119.202;2022-09-09T16:17:02;48.83;;;3.08;;
64174;SDS011;50469;50.438;-119.202;2022-09-09T16:19:31;21.02;;;3.35;;
64174;SDS011;50469;50.438;-119.202;2022-09-09T16:22:02;23.45;;;3.05;;
64174;SDS011;50469;50.438;-119.202;2022-09-09T16:24:33;21.52;;;2.55;;
64174;SDS011;50469;50.438;-119.202;2022-09-09T16:27:01;9.80;;;2.22;;
64174;SDS011;50469;50.438;-119.202;2022-09-09T16:29:29;15.93;;;2.70;;
64174;SDS011;50469;50.438;-119.202;2022-09-09T16:31:58;15.77;;;3.08;;
64174;SDS011;50469;50.438;-119.202;2022-09-09T16:34:29;11.20;;;2.13;;
64174;SDS011;50469;50.438;-119.202;2022-09-09T16:36:58;12.40;;;2.38;;
64174;SDS011;50469;50.438;-119.202;2022-09-09T16:39:28;12.00;;;1.75;;
64174;SDS011;50469;50.438;-119.202;2022-09-09T16:42:01;15.00;;;2.13;;
64174;SDS011;50469;50.438;-119.202;2022-09-09T16:44:30;11.93;;;2.22;;
64174;SDS011;50469;50.438;-119.202;2022-09-09T16:47:01;8.15;;;1.60;;
64174;SDS011;50469;50.438;-119.202;2022-09-09T16:49:32;8.05;;;1.58;;
64174;SDS011;50469;50.438;-119.202;2022-09-09T16:52:03;14.18;;;1.45;;
64174;SDS011;50469;50.438;-119.202;2022-09-09T16:54:32;7.68;;;1.83;;
64174;SDS011;50469;50.438;-119.202;2022-09-09T16:57:00;29.13;;;2.20;;
64174;SDS011;50469;50.438;-119.202;2022-09-09T16:59:28;7.13;;;1.30;;
64174;SDS011;50469;50.438;-119.202;2022-09-09T17:01:59;9.77;;;1.77;;
64174;SDS011;50469;50.438;-119.202;2022-09-09T17:04:30;3.42;;;1.92;;
64174;SDS011;50469;50.438;-119.202;2022-09-09T17:06:58;7.28;;;1.50;;
64174;SDS011;50469;50.438;-119.202;2022-09-09T17:09:26;10.88;;;1.30;;
64174;SDS011;50469;50.438;-119.202;2022-09-09T17:11:56;2.65;;;1.42;;
64174;SDS011;50469;50.438;-119.202;2022-09-09T17:14:26;11.05;;;1.63;;
64174;SDS011;50469;50.438;-119.202;2022-09-09T17:16:54;7.13;;;2.00;;
64174;SDS011;50469;50.438;-119.202;2022-09-09T17:19:42;5.20;;;1.70;;
64174;SDS011;50469;50.438;-119.202;2022-09-09T17:22:10;5.43;;;1.60;;
64174;SDS011;50469;50.438;-119.202;2022-09-09T17:24:43;8.32;;;1.77;;
64174;SDS011;50469;50.438;-119.202;2022-09-09T17:27:11;3.67;;;1.80;;
64174;SDS011;50469;50.438;-119.202;2022-09-09T17:29:42;5.60;;;1.73;;